Terminal Aerodrome Forecast
Issued by NWS

Home | Current Version | Previous Version | Text Only | Print | Product List | Glossary On
Versions: 1 2 3 4 5 6 7 8 9 10 11 12 13 14 15 16 17 18 19 20 21
822
FTUS46 KSEW 232347 AAA
TAFSEA
TAF AMD
KSEA 232347Z 2400/2506 19012KT P6SM -SHRA SCT020 OVC040
      TEMPO 2400/2404 6SM -SHRA BR BKN015 OVC040
     FM240400 19007KT P6SM VCSH SCT025 BKN040 OVC060
      TEMPO 2404/2407 BKN025 OVC040
     FM241400 04004KT P6SM SCT030 BKN050 BKN080
     FM241800 36006KT P6SM VCSH SCT025 BKN040 BKN060=

USA.gov is the U.S. government's official web portal to all federal, state and local government web resources and services.